Time;durP1;ratioP1;P1;durP2;ratioP2;P2;SDS_P1;SDS_P2;PMS_P1;PMS_P2;Temp;Humidity;BMP_temperature;BMP_pressure;BME280_temperature;BME280_humidity;BME280_pressure;Samples;Min_cycle;Max_cycle;Signal;HPM_P1;HPM_P2
2021/08/26 00:08:36;;;;;;;0.90;0.32;;;16.40;99.90;;;;;;20514746;28;20031;-44
2021/08/26 00:18:40;;;;;;;3.80;1.38;;;16.40;99.90;;;;;;20497223;28;23678;-44
2021/08/26 00:28:41;;;;;;;0.90;0.22;;;16.40;99.90;;;;;;20510270;28;20410;-44
2021/08/26 00:38:42;;;;;;;1.48;0.30;;;16.40;99.90;;;;;;20509793;28;20398;-44
2021/08/26 00:48:47;;;;;;;3.95;0.50;;;16.40;99.90;;;;;;20528126;28;20677;-44
2021/08/26 00:58:50;;;;;;;2.30;0.55;;;16.40;99.90;;;;;;20514431;28;20050;-44
2021/08/26 01:09:16;;;;;;;1.42;0.70;;;16.40;99.90;;;;;;20513894;28;20038;-44
2021/08/26 01:19:17;;;;;;;8.30;1.48;;;16.30;99.90;;;;;;20522859;28;20054;-44
2021/08/26 01:29:20;;;;;;;4.95;0.90;;;16.30;99.90;;;;;;20540307;28;20043;-44
2021/08/26 01:39:21;;;;;;;3.95;0.70;;;16.20;99.90;;;;;;20540114;28;20492;-44
2021/08/26 01:49:22;;;;;;;5.63;1.83;;;16.10;99.90;;;;;;20540342;28;20050;-44
2021/08/26 01:59:23;;;;;;;4.70;1.08;;;16.10;99.90;;;;;;20542337;28;20039;-44
2021/08/26 02:09:24;;;;;;;3.53;1.50;;;16.00;99.90;;;;;;20531821;28;20449;-44
2021/08/26 02:19:26;;;;;;;3.97;1.50;;;16.00;99.90;;;;;;20526554;28;20051;-44
2021/08/26 02:29:27;;;;;;;3.75;1.13;;;16.10;99.90;;;;;;20534450;28;20322;-44
2021/08/26 02:39:28;;;;;;;4.32;0.75;;;16.00;99.90;;;;;;20540311;28;20046;-44
2021/08/26 02:49:29;;;;;;;4.40;0.60;;;15.80;99.90;;;;;;20550214;28;20054;-43
2021/08/26 02:59:31;;;;;;;3.65;1.42;;;15.90;99.90;;;;;;20531234;28;20058;-44
2021/08/26 03:09:32;;;;;;;3.10;1.20;;;15.70;99.90;;;;;;20524425;28;20555;-43
2021/08/26 03:19:33;;;;;;;9.55;1.15;;;15.70;99.90;;;;;;20505034;28;20061;-43
2021/08/26 03:29:34;;;;;;;2.50;0.95;;;15.80;99.90;;;;;;20542337;28;20031;-43
2021/08/26 03:39:35;;;;;;;6.43;0.95;;;15.80;99.90;;;;;;20547672;28;20057;-43
2021/08/26 03:49:36;;;;;;;2.08;0.63;;;15.80;99.90;;;;;;20544911;28;20038;-43
2021/08/26 03:59:38;;;;;;;8.60;0.82;;;15.80;99.90;;;;;;20532917;28;20520;-43
2021/08/26 04:09:39;;;;;;;2.60;0.52;;;15.80;99.90;;;;;;20547237;28;20049;-43
2021/08/26 04:19:40;;;;;;;3.67;0.88;;;15.80;99.90;;;;;;20539831;28;20050;-43
2021/08/26 04:29:41;;;;;;;4.60;0.90;;;15.70;99.90;;;;;;20540212;28;20049;-43
2021/08/26 04:39:42;;;;;;;2.67;0.60;;;15.80;99.90;;;;;;20534192;28;20611;-43
2021/08/26 04:49:43;;;;;;;0.80;0.52;;;15.80;99.90;;;;;;20517961;28;20039;-43
2021/08/26 04:59:44;;;;;;;4.65;1.08;;;15.70;99.90;;;;;;20525608;28;20795;-43
2021/08/26 05:09:45;;;;;;;2.88;0.60;;;15.80;99.90;;;;;;20537602;28;20038;-43
2021/08/26 05:19:47;;;;;;;1.20;0.52;;;15.70;99.90;;;;;;20534998;28;20044;-43
2021/08/26 05:29:51;;;;;;;1.90;0.43;;;15.70;99.90;;;;;;20525034;28;20034;-44
2021/08/26 05:39:52;;;;;;;1.88;0.43;;;15.70;99.90;;;;;;20553037;28;20068;-43
2021/08/26 05:49:53;;;;;;;2.95;0.77;;;15.70;99.90;;;;;;20557732;28;20399;-43
2021/08/26 05:59:54;;;;;;;5.00;1.00;;;15.80;99.90;;;;;;20554325;28;20047;-43
2021/08/26 06:09:55;;;;;;;1.92;0.40;;;15.80;99.90;;;;;;20500743;28;20408;-43
2021/08/26 06:19:56;;;;;;;3.75;1.33;;;15.80;99.90;;;;;;20551779;28;20462;-43
2021/08/26 06:29:57;;;;;;;1.20;0.50;;;15.90;99.90;;;;;;20522899;28;20038;-43
2021/08/26 06:39:59;;;;;;;1.25;0.40;;;15.90;99.90;;;;;;20487125;28;20044;-43
2021/08/26 06:50:00;;;;;;;1.23;0.20;;;16.10;99.90;;;;;;20444334;28;20074;-44
2021/08/26 07:00:07;;;;;;;1.65;0.50;;;16.20;99.90;;;;;;20437120;28;20051;-43
2021/08/26 07:10:08;;;;;;;2.80;0.30;;;16.50;99.90;;;;;;20431022;28;20035;-43
2021/08/26 07:20:10;;;;;;;0.55;0.25;;;16.40;99.90;;;;;;20424071;28;20054;-43
2021/08/26 07:30:11;;;;;;;0.22;0.10;;;16.50;99.90;;;;;;20457012;28;20431;-43
2021/08/26 07:40:12;;;;;;;1.83;0.10;;;16.60;99.90;;;;;;20508063;28;20038;-43
2021/08/26 07:50:15;;;;;;;1.27;0.22;;;16.80;99.90;;;;;;20520702;28;20479;-43
2021/08/26 08:00:16;;;;;;;4.15;0.52;;;16.70;99.90;;;;;;20516531;28;20061;-43
2021/08/26 08:10:17;;;;;;;2.00;0.40;;;16.60;99.90;;;;;;20516102;28;20038;-43
2021/08/26 08:20:18;;;;;;;1.75;0.80;;;16.70;99.90;;;;;;20507085;28;20426;-43
2021/08/26 08:30:25;;;;;;;7.10;0.68;;;16.70;99.90;;;;;;20510870;28;20054;-44
2021/08/26 08:40:27;;;;;;;1.27;0.67;;;17.10;99.90;;;;;;20464008;28;20043;-44
2021/08/26 08:50:28;;;;;;;5.68;1.45;;;17.30;99.90;;;;;;20432943;28;20054;-44
2021/08/26 09:00:29;;;;;;;5.15;0.50;;;17.40;99.90;;;;;;20467672;28;20491;-44
2021/08/26 09:10:36;;;;;;;1.75;0.35;;;17.00;99.90;;;;;;20472255;28;20314;-44
2021/08/26 09:20:50;;;;;;;1.43;0.40;;;16.70;99.90;;;;;;20464739;28;20053;-44
2021/08/26 09:31:17;;;;;;;2.88;0.70;;;17.40;99.90;;;;;;20459178;28;20044;-44
2021/08/26 09:41:38;;;;;;;2.92;0.95;;;17.70;99.90;;;;;;20468603;28;20051;-44
2021/08/26 09:51:40;;;;;;;2.38;0.70;;;17.70;99.90;;;;;;20483425;28;20444;-44
2021/08/26 10:01:41;;;;;;;2.45;0.60;;;17.70;99.90;;;;;;20467786;28;20430;-44
2021/08/26 10:11:44;;;;;;;3.78;1.23;;;17.80;99.90;;;;;;20495017;28;20047;-44
2021/08/26 10:21:46;;;;;;;5.25;0.75;;;18.00;99.90;;;;;;20502531;28;20054;-44
2021/08/26 10:31:58;;;;;;;1.80;0.52;;;18.20;99.90;;;;;;20477749;28;20035;-44
2021/08/26 10:42:18;;;;;;;2.08;0.70;;;18.10;99.90;;;;;;20480131;28;20054;-44
2021/08/26 10:52:58;;;;;;;4.68;1.55;;;18.40;99.90;;;;;;20485694;28;20561;-44
2021/08/26 11:02:59;;;;;;;2.92;0.77;;;18.30;99.90;;;;;;20491219;28;20507;-44
2021/08/26 11:13:25;;;;;;;2.42;0.73;;;18.10;99.90;;;;;;20483335;28;20035;-44
2021/08/26 11:23:45;;;;;;;4.32;1.10;;;18.20;99.90;;;;;;20489504;28;20327;-44
2021/08/26 11:33:46;;;;;;;3.55;0.70;;;18.20;99.90;;;;;;20491303;28;20278;-44
2021/08/26 11:43:48;;;;;;;4.15;0.80;;;18.50;99.90;;;;;;20529095;28;20917;-44
2021/08/26 11:53:49;;;;;;;2.45;0.95;;;18.00;99.90;;;;;;20523860;28;20510;-44
2021/08/26 12:03:54;;;;;;;3.10;0.75;;;18.00;99.90;;;;;;20506865;28;20043;-44
2021/08/26 12:14:05;;;;;;;4.07;1.20;;;18.20;99.90;;;;;;20501282;28;20066;-44
2021/08/26 12:24:09;;;;;;;1.80;0.47;;;18.30;99.90;;;;;;20515518;28;20043;-44
2021/08/26 12:34:13;;;;;;;2.97;0.80;;;18.50;99.90;;;;;;20507607;28;20042;-44
2021/08/26 12:44:27;;;;;;;7.57;1.42;;;18.60;99.90;;;;;;20514893;28;20823;-44
2021/08/26 12:54:28;;;;;;;4.50;1.48;;;18.80;99.90;;;;;;20509772;28;20114;-44
2021/08/26 13:04:29;;;;;;;8.10;1.00;;;19.10;99.90;;;;;;20505140;28;20051;-44
2021/08/26 13:14:41;;;;;;;2.22;1.00;;;19.00;99.90;;;;;;20524382;28;20055;-44
2021/08/26 13:24:42;;;;;;;2.55;0.70;;;18.80;99.90;;;;;;20520866;28;20044;-44
2021/08/26 13:34:44;;;;;;;5.20;1.25;;;18.50;99.90;;;;;;20552288;28;20043;-44
2021/08/26 13:44:45;;;;;;;5.63;0.90;;;18.60;99.90;;;;;;20457741;28;20047;-44
2021/08/26 13:54:46;;;;;;;2.65;0.60;;;20.10;99.90;;;;;;20450256;28;20040;-44
2021/08/26 14:04:47;;;;;;;5.07;1.08;;;19.80;99.90;;;;;;20443741;28;20653;-44
2021/08/26 14:14:48;;;;;;;3.40;0.90;;;19.20;99.90;;;;;;20457031;28;20412;-44
2021/08/26 14:24:50;;;;;;;3.42;1.00;;;19.40;99.90;;;;;;20452402;28;20416;-44
2021/08/26 14:34:52;;;;;;;3.30;0.70;;;20.10;99.90;;;;;;20442329;28;20047;-44
2021/08/26 14:44:53;;;;;;;1.65;0.70;;;20.20;99.90;;;;;;20490222;28;20047;-44
2021/08/26 14:54:54;;;;;;;2.45;0.70;;;20.20;99.90;;;;;;20497885;28;20495;-44
2021/08/26 15:04:56;;;;;;;4.82;1.05;;;19.40;99.90;;;;;;20481172;28;20058;-44
2021/08/26 15:14:57;;;;;;;5.97;1.20;;;17.70;99.90;;;;;;20486134;28;20046;-44
2021/08/26 15:24:58;;;;;;;6.97;1.33;;;17.30;99.90;;;;;;20482278;28;20043;-44
2021/08/26 15:35:01;;;;;;;2.17;0.80;;;17.60;99.90;;;;;;20482227;28;20044;-44
2021/08/26 15:45:03;;;;;;;2.30;0.80;;;18.00;99.90;;;;;;20520189;28;20043;-44
2021/08/26 16:05:06;;;;;;;10.38;1.30;;;17.90;99.90;;;;;;20508980;28;20069;-44
2021/08/26 16:15:08;;;;;;;12.73;1.42;;;17.80;99.90;;;;;;20526334;28;20399;-44
2021/08/26 16:25:09;;;;;;;3.22;0.73;;;17.70;99.90;;;;;;20491921;28;20050;-44
2021/08/26 16:35:13;;;;;;;3.90;1.60;;;17.80;99.90;;;;;;20518506;28;20085;-44
2021/08/26 16:45:17;;;;;;;4.03;1.80;;;17.80;99.90;;;;;;20518189;28;20047;-44
2021/08/26 16:55:18;;;;;;;7.43;0.88;;;17.90;99.90;;;;;;20531960;28;20044;-43
2021/08/26 17:05:19;;;;;;;0.93;0.20;;;17.70;99.90;;;;;;20546839;28;20384;-44
2021/08/26 17:15:21;;;;;;;1.38;0.30;;;17.50;99.90;;;;;;20534791;28;21405;-44
2021/08/26 17:25:22;;;;;;;2.97;0.20;;;17.40;99.90;;;;;;20542731;28;20050;-44
2021/08/26 17:35:23;;;;;;;0.98;0.47;;;17.30;99.90;;;;;;20550196;28;20076;-44
2021/08/26 17:45:25;;;;;;;0.55;0.10;;;17.30;99.90;;;;;;20472565;28;20040;-44
2021/08/26 17:55:26;;;;;;;1.05;0.08;;;17.20;99.90;;;;;;20481554;28;20051;-44
2021/08/26 18:05:27;;;;;;;0.47;0.10;;;17.20;99.90;;;;;;20476138;28;20047;-44
2021/08/26 18:15:30;;;;;;;1.65;0.10;;;17.10;99.90;;;;;;20465706;28;20047;-44
2021/08/26 18:25:31;;;;;;;1.13;0.30;;;17.00;99.90;;;;;;20463400;28;20043;-44
2021/08/26 18:35:32;;;;;;;1.35;0.13;;;16.90;99.90;;;;;;20471666;28;20799;-44
2021/08/26 18:45:33;;;;;;;2.05;0.20;;;16.80;99.90;;;;;;20486458;28;21133;-44
2021/08/26 18:55:37;;;;;;;0.80;0.20;;;16.80;99.90;;;;;;20485080;28;20387;-44
2021/08/26 19:05:38;;;;;;;3.17;0.40;;;16.90;99.90;;;;;;20477819;28;20523;-44
2021/08/26 19:15:39;;;;;;;0.10;0.00;;;16.90;99.90;;;;;;20486898;28;20047;-44
2021/08/26 19:25:42;;;;;;;0.32;0.10;;;16.90;99.90;;;;;;20482718;28;20098;-44
2021/08/26 19:35:43;;;;;;;0.30;0.00;;;16.70;99.90;;;;;;20474195;28;20050;-44
2021/08/26 19:45:44;;;;;;;2.17;0.20;;;16.60;99.90;;;;;;20438784;28;20053;-44
2021/08/26 19:55:45;;;;;;;0.20;0.00;;;16.50;99.90;;;;;;20442830;28;20035;-44
2021/08/26 20:05:46;;;;;;;0.57;0.00;;;16.40;99.90;;;;;;20449094;28;20059;-44
2021/08/26 20:15:48;;;;;;;0.88;0.20;;;16.30;99.90;;;;;;20439901;28;20054;-44
2021/08/26 20:25:49;;;;;;;1.17;0.20;;;16.30;99.90;;;;;;20438531;28;20051;-44
2021/08/26 20:35:50;;;;;;;0.68;0.10;;;16.40;99.90;;;;;;20444236;28;20054;-44
2021/08/26 20:45:52;;;;;;;1.10;0.17;;;16.30;99.90;;;;;;20434337;28;20070;-44
2021/08/26 20:55:53;;;;;;;0.85;0.10;;;16.30;99.90;;;;;;20438248;28;20065;-44
2021/08/26 21:05:54;;;;;;;0.93;0.05;;;16.10;99.90;;;;;;20438996;28;20051;-44
2021/08/26 21:15:55;;;;;;;0.15;0.00;;;16.10;99.90;;;;;;20426450;28;20510;-44
2021/08/26 21:25:56;;;;;;;0.15;0.05;;;16.00;99.90;;;;;;20442917;28;20808;-44
2021/08/26 21:35:57;;;;;;;1.35;0.10;;;16.00;99.90;;;;;;20436395;28;20047;-44
2021/08/26 21:45:58;;;;;;;0.85;0.15;;;16.00;99.90;;;;;;20480809;28;20495;-44
2021/08/26 21:56:01;;;;;;;0.88;0.10;;;15.80;99.90;;;;;;20481045;28;20039;-44
2021/08/26 22:06:03;;;;;;;0.75;0.22;;;15.60;99.90;;;;;;20481604;28;20055;-44
2021/08/26 22:16:05;;;;;;;0.22;0.00;;;15.60;99.90;;;;;;20481213;28;20050;-44
2021/08/26 22:26:06;;;;;;;0.45;0.20;;;15.40;99.90;;;;;;20480863;28;20058;-44
2021/08/26 22:36:11;;;;;;;1.60;0.20;;;15.30;99.90;;;;;;20479556;28;20050;-44
2021/08/26 22:46:12;;;;;;;0.40;0.13;;;15.20;99.90;;;;;;20475191;28;20051;-44
2021/08/26 22:56:15;;;;;;;0.50;0.15;;;15.10;99.90;;;;;;20472696;28;20046;-44
2021/08/26 23:06:16;;;;;;;0.95;0.10;;;15.00;99.90;;;;;;20479342;28;20047;-44
2021/08/26 23:16:17;;;;;;;0.60;0.05;;;14.90;99.90;;;;;;20478130;28;20036;-44
2021/08/26 23:26:18;;;;;;;2.40;0.30;;;14.70;99.90;;;;;;20477894;28;20043;-44
2021/08/26 23:36:19;;;;;;;1.90;0.35;;;14.60;99.90;;;;;;20478767;28;20066;-44
2021/08/26 23:46:20;;;;;;;0.73;0.15;;;14.40;99.90;;;;;;20471589;28;20533;-44
2021/08/26 23:56:21;;;;;;;0.50;0.20;;;14.40;99.90;;;;;;20469534;28;20042;-44
